LDZD/ZAD METAR and TAF weather

Enter ICAO airport designator
Station Type Date Time Source
LDZD METAR 2021/06/24 05:30 UTC NOAA

LDZD 240530Z 00000KT CAVOK 27/19 Q1015 NOSIG


Station Type Date Time Source
LDZD Decoded METAR 2021/06/24 05:30 UTC NOAA

Zadar / Zemunik, Croatia (LDZD) 44-06N 015-21E
Jun 24, 2021 - 01:30 AM EDT / 2021.06.24 0530 UTC
Wind: Calm:0
Visibility: greater than 7 mile(s):0
Temperature: 80 F (27 C)
Dew Point: 66 F (19 C)
Relative Humidity: 61%
Pressure (altimeter): 29.97 in. Hg (1015 hPa)
ob: LDZD 240530Z 00000KT CAVOK 27/19 Q1015 NOSIG
cycle: 5

Station Type Date Time Source
LDZD TAF 2021/06/24 06:30 UTC NOAA

TAF LDZD 240525Z 2406/2506 12005KT CAVOK TX35/2413Z TN19/2503Z
BECMG 2408/2410 22008KT
BECMG 2416/2418 16005KT

Example: see airport list